EGPH

Edinburgh Airport

Edinburgh, United Kingdom
METAR EGPH 160620Z 06003KT 9999 OVC017 08/07 Q1010
Observed Flight Rules
Oct-16 @ 06:20 UTC (28 minutes ago) Marginal Visual Flight Rules
Wind Visibility Clouds
60° at 3 knots 10,000+ meters
  • Overcast at 1,700' AGL
Temperatures Readings
Current 8°C / 46°F
Dewpoint 7°C / 45°F
Humidity 93%
Altimeter 29.82" Hg
Pressure 1010 hPa
Elevation 41
METAR EGPH 160620Z 06003KT 9999 OVC017 08/07 Q1010
Observed Flight Rules
Oct-16 @ 06:20 UTC
(28 minutes ago)
MVFR
Wind Visibility
60° at 3 knots 10,000+ meters
Clouds
  • Overcast at 1,700' AGL
Temperature Dewpoint
8°C / 46°F 7°C / 45°F
Humidity Altimeter Pressure
93% 29.82" Hg 1010 hPa